createdAt,value
2023-02-07T00:01:25.375Z,101773.47
2023-02-07T00:03:52.822Z,101780.41
2023-02-07T00:06:23.588Z,101777.16
2023-02-07T00:08:50.564Z,101779.19
2023-02-07T00:11:20.022Z,101778.28
2023-02-07T00:13:49.278Z,101781.13
2023-02-07T00:16:16.143Z,101783.78
2023-02-07T00:18:42.847Z,101784.75
2023-02-07T00:21:16.109Z,101790.88
2023-02-07T00:23:43.659Z,101785.19
2023-02-07T00:26:11.482Z,101793.63
2023-02-07T00:28:39.205Z,101788.44
2023-02-07T00:31:10.058Z,101787.03
2023-02-07T00:33:38.608Z,101783.66
2023-02-07T00:36:08.106Z,101785.09
2023-02-07T00:38:34.792Z,101788.03
2023-02-07T00:41:01.731Z,101791.19
2023-02-07T00:43:30.351Z,101793.31
2023-02-07T00:46:02.227Z,101798.72
2023-02-07T00:48:30.501Z,101797.19
2023-02-07T00:50:58.413Z,101801.16
2023-02-07T00:53:25.762Z,101802.56
2023-02-07T00:55:52.779Z,101799.53
2023-02-07T00:58:19.437Z,101802.28
2023-02-07T01:00:46.634Z,101804.19
2023-02-07T01:03:13.856Z,101805.03
2023-02-07T01:05:40.920Z,101795.88
2023-02-07T01:08:07.770Z,101794.94
2023-02-07T01:10:35.808Z,101796.78
2023-02-07T01:13:02.480Z,101788.25
2023-02-07T01:15:29.364Z,101781.03
2023-02-07T01:17:56.049Z,101778.88
2023-02-07T01:20:22.911Z,101781.94
2023-02-07T01:22:49.494Z,101789.06
2023-02-07T01:25:16.154Z,101788.84
2023-02-07T01:27:42.791Z,101791.78
2023-02-07T01:30:09.959Z,101788.34
2023-02-07T01:32:36.539Z,101783.56
2023-02-07T01:35:03.513Z,101781.53
2023-02-07T01:37:32.134Z,101779.19
2023-02-07T01:39:58.738Z,101779.19
2023-02-07T01:42:28.082Z,101781.91
2023-02-07T01:44:54.657Z,101794.00
2023-02-07T01:47:23.295Z,101808.09
2023-02-07T01:49:52.979Z,101805.03
2023-02-07T01:52:31.963Z,101801.19
2023-02-07T01:55:03.276Z,101804.16
2023-02-07T01:57:30.825Z,101802.63
2023-02-07T01:59:59.289Z,101789.22
2023-02-07T02:02:29.169Z,101788.41
2023-02-07T02:04:57.643Z,101778.44
2023-02-07T02:07:26.227Z,101773.56
2023-02-07T02:09:53.765Z,101770.41
2023-02-07T02:13:02.476Z,101766.97
2023-02-07T02:15:49.253Z,101754.47
2023-02-07T02:18:36.634Z,101759.25
2023-02-07T02:21:06.238Z,101756.09
2023-02-07T02:23:35.752Z,101757.72
2023-02-07T02:26:21.041Z,101767.06
2023-02-07T02:29:02.949Z,101760.34
2023-02-07T02:31:39.714Z,101758.09
2023-02-07T02:34:24.397Z,101754.75
2023-02-07T02:36:56.648Z,101758.09
2023-02-07T02:39:41.604Z,101761.03
2023-02-07T02:42:17.113Z,101766.94
2023-02-07T02:44:55.879Z,101772.19
2023-02-07T02:47:22.687Z,101766.63
2023-02-07T02:49:49.840Z,101771.28
2023-02-07T02:52:17.698Z,101769.25
2023-02-07T02:54:44.424Z,101764.44
2023-02-07T02:57:55.328Z,101767.38
2023-02-07T03:00:50.149Z,101760.69
2023-02-07T03:03:28.963Z,101755.59
2023-02-07T03:06:13.885Z,101755.69
2023-02-07T03:09:05.333Z,101757.53
2023-02-07T03:11:42.153Z,101747.38
2023-02-07T03:14:14.661Z,101755.69
2023-02-07T03:16:58.213Z,101754.59
2023-02-07T03:19:46.240Z,101752.69
2023-02-07T03:22:18.291Z,101746.91
2023-02-07T03:24:50.635Z,101754.75
2023-02-07T03:27:21.460Z,101765.22
2023-02-07T03:29:52.332Z,101765.56
2023-02-07T03:32:20.506Z,101766.25
2023-02-07T03:35:18.177Z,101768.31
2023-02-07T03:37:49.849Z,101757.22
2023-02-07T03:40:16.991Z,101750.94
2023-02-07T03:42:50.954Z,101757.66
2023-02-07T03:45:20.389Z,101753.47
2023-02-07T03:47:47.325Z,101761.41
2023-02-07T03:50:15.227Z,101750.63
2023-02-07T03:52:41.966Z,101758.47
2023-02-07T03:55:09.124Z,101748.19
2023-02-07T03:57:35.703Z,101748.00
2023-02-07T04:00:02.636Z,101745.66
2023-02-07T04:02:39.122Z,101752.16
2023-02-07T04:05:06.160Z,101753.88
2023-02-07T04:07:32.810Z,101750.53
2023-02-07T04:09:59.496Z,101736.81
2023-02-07T04:12:32.649Z,101738.84
2023-02-07T04:15:04.569Z,101741.59
2023-02-07T04:17:31.675Z,101752.97
2023-02-07T04:19:58.829Z,101747.38
2023-02-07T04:22:25.613Z,101743.31
2023-02-07T04:24:52.159Z,101736.91
2023-02-07T04:27:18.800Z,101735.78
2023-02-07T04:29:45.385Z,101738.31
2023-02-07T04:32:12.045Z,101750.81
2023-02-07T04:34:38.643Z,101755.81
2023-02-07T04:37:05.230Z,101763.22
2023-02-07T04:39:32.016Z,101759.03
2023-02-07T04:41:58.711Z,101761.47
2023-02-07T04:44:25.310Z,101760.66
2023-02-07T04:46:51.887Z,101762.19
2023-02-07T04:49:18.493Z,101771.44
2023-02-07T04:51:45.166Z,101765.44
2023-02-07T04:54:11.886Z,101773.88
2023-02-07T04:56:38.493Z,101777.22
2023-02-07T04:59:05.106Z,101771.03
2023-02-07T05:01:32.222Z,101766.88
2023-02-07T05:03:59.140Z,101770.13
2023-02-07T05:06:25.819Z,101780.28
2023-02-07T05:08:52.448Z,101776.84
2023-02-07T05:11:19.552Z,101773.06
2023-02-07T05:13:46.366Z,101773.16
2023-02-07T05:16:13.024Z,101772.44
2023-02-07T05:18:39.594Z,101775.81
2023-02-07T05:21:06.255Z,101778.16
2023-02-07T05:23:32.857Z,101784.66
2023-02-07T05:25:59.612Z,101780.19
2023-02-07T05:28:26.290Z,101785.97
2023-02-07T05:30:55.530Z,101786.69
2023-02-07T05:33:22.149Z,101774.91
2023-02-07T05:35:48.756Z,101787.59
2023-02-07T05:38:17.646Z,101791.97
2023-02-07T05:40:44.815Z,101794.00
2023-02-07T05:43:12.352Z,101801.63
2023-02-07T05:45:39.583Z,101795.44
2023-02-07T05:48:06.626Z,101805.25
2023-02-07T05:50:34.199Z,101798.94
2023-02-07T05:53:09.686Z,101800.56
2023-02-07T05:55:36.835Z,101803.94
2023-02-07T05:58:03.992Z,101792.97
2023-02-07T06:00:30.695Z,101788.91
2023-02-07T06:02:57.303Z,101781.56
2023-02-07T06:05:24.715Z,101772.53
2023-02-07T06:07:52.181Z,101780.34
2023-02-07T06:10:18.888Z,101768.13
2023-02-07T06:12:45.543Z,101764.56
2023-02-07T06:15:12.196Z,101760.78
2023-02-07T06:17:38.798Z,101760.16
2023-02-07T06:20:05.996Z,101762.88
2023-02-07T06:22:32.602Z,101763.41
2023-02-07T06:24:59.157Z,101766.84
2023-02-07T06:27:25.799Z,101766.22
2023-02-07T06:29:52.454Z,101761.72
2023-02-07T06:32:19.029Z,101764.28
2023-02-07T06:34:45.700Z,101773.78
2023-02-07T06:37:12.622Z,101779.97
2023-02-07T06:39:39.760Z,101782.50
2023-02-07T06:42:06.560Z,101780.16
2023-02-07T06:44:33.162Z,101782.78
2023-02-07T06:46:59.924Z,101781.16
2023-02-07T06:49:26.484Z,101780.25
2023-02-07T06:51:53.075Z,101785.31
2023-02-07T06:54:19.758Z,101797.19
2023-02-07T06:56:46.373Z,101791.75
2023-02-07T06:59:13.065Z,101799.69
2023-02-07T07:01:39.731Z,101797.78
2023-02-07T07:04:06.597Z,101799.41
2023-02-07T07:06:33.404Z,101796.88
2023-02-07T07:08:59.994Z,101804.28
2023-02-07T07:11:26.625Z,101804.00
2023-02-07T07:13:53.212Z,101793.84
2023-02-07T07:16:20.010Z,101788.50
2023-02-07T07:18:46.696Z,101793.38
2023-02-07T07:21:13.351Z,101793.19
2023-02-07T07:23:40.029Z,101804.97
2023-02-07T07:26:06.758Z,101799.50
2023-02-07T07:28:33.451Z,101805.72
2023-02-07T07:31:08.003Z,101810.59
2023-02-07T07:33:36.236Z,101813.66
2023-02-07T07:36:04.099Z,101812.16
2023-02-07T07:38:31.532Z,101812.69
2023-02-07T07:40:58.433Z,101812.28
2023-02-07T07:43:25.104Z,101816.38
2023-02-07T07:45:56.643Z,101814.13
2023-02-07T07:48:24.438Z,101816.19
2023-02-07T07:50:51.542Z,101823.19
2023-02-07T07:53:19.359Z,101815.09
2023-02-07T07:55:50.791Z,101819.84
2023-02-07T07:58:18.415Z,101820.47
2023-02-07T08:00:46.259Z,101830.94
2023-02-07T08:03:13.544Z,101819.84
2023-02-07T08:05:40.530Z,101828.50
2023-02-07T08:08:07.573Z,101821.91
2023-02-07T08:10:34.248Z,101830.84
2023-02-07T08:13:00.922Z,101824.03
2023-02-07T08:15:27.941Z,101816.13
2023-02-07T08:17:54.535Z,101812.84
2023-02-07T08:20:21.191Z,101813.47
2023-02-07T08:22:47.838Z,101817.09
2023-02-07T08:25:14.421Z,101828.09
2023-02-07T08:27:40.995Z,101826.44
2023-02-07T08:30:12.643Z,101821.03
2023-02-07T08:32:39.886Z,101821.03
2023-02-07T08:35:07.395Z,101829.59
2023-02-07T08:37:34.107Z,101836.00
2023-02-07T08:40:00.983Z,101834.75
2023-02-07T08:42:27.802Z,101830.97
2023-02-07T08:44:54.397Z,101833.47
2023-02-07T08:47:20.994Z,101831.44
2023-02-07T08:49:47.607Z,101839.81
2023-02-07T08:52:14.260Z,101852.00
2023-02-07T08:54:40.881Z,101855.03
2023-02-07T08:57:07.570Z,101850.19
2023-02-07T08:59:34.204Z,101847.00
2023-02-07T09:02:00.832Z,101840.53
2023-02-07T09:04:27.506Z,101843.06
2023-02-07T09:06:54.139Z,101842.59
2023-02-07T09:09:20.827Z,101845.53
2023-02-07T09:11:47.389Z,101844.97
2023-02-07T09:14:14.068Z,101843.94
2023-02-07T09:16:40.831Z,101840.81
2023-02-07T09:19:07.563Z,101842.38
2023-02-07T09:21:34.319Z,101841.09
2023-02-07T09:24:00.909Z,101830.84
2023-02-07T09:26:27.671Z,101835.53
2023-02-07T09:28:54.233Z,101841.22
2023-02-07T09:31:21.889Z,101835.38
2023-02-07T09:33:48.590Z,101834.56
2023-02-07T09:36:23.966Z,101835.84
2023-02-07T09:38:51.632Z,101840.00
2023-02-07T09:41:26.435Z,101839.94
2023-02-07T09:44:07.521Z,101821.19
2023-02-07T09:46:42.290Z,101813.75
2023-02-07T09:49:38.212Z,101815.94
2023-02-07T09:52:10.210Z,101803.41
2023-02-07T09:54:45.704Z,101810.75
2023-02-07T09:57:23.690Z,101802.34
2023-02-07T10:00:10.008Z,101804.78
2023-02-07T10:02:44.474Z,101811.19
2023-02-07T10:05:18.763Z,101814.41
2023-02-07T10:07:47.135Z,101810.06
2023-02-07T10:10:20.129Z,101804.47
2023-02-07T10:12:58.969Z,101807.97
2023-02-07T10:15:47.536Z,101797.84
2023-02-07T10:18:42.578Z,101811.50
2023-02-07T10:21:14.073Z,101808.41
2023-02-07T10:23:59.402Z,101800.84
2023-02-07T10:26:37.949Z,101804.00
2023-02-07T10:29:19.494Z,101797.38
2023-02-07T10:31:53.518Z,101805.88
2023-02-07T10:34:25.991Z,101806.09
2023-02-07T10:36:56.100Z,101801.16
2023-02-07T10:39:37.210Z,101807.66
2023-02-07T10:42:03.993Z,101803.31
2023-02-07T10:44:30.955Z,101805.91
2023-02-07T10:47:01.721Z,101806.56
2023-02-07T10:49:30.987Z,101807.47
2023-02-07T10:52:02.728Z,101800.41
2023-02-07T10:54:29.684Z,101807.03
2023-02-07T10:57:02.704Z,101808.44
2023-02-07T10:59:45.586Z,101807.97
2023-02-07T11:02:31.730Z,101798.53
2023-02-07T11:05:24.722Z,101804.69
2023-02-07T11:08:01.745Z,101799.69
2023-02-07T11:10:44.034Z,101792.13
2023-02-07T11:13:45.557Z,101790.16
2023-02-07T11:16:17.337Z,101791.06
2023-02-07T11:18:59.411Z,101789.13
2023-02-07T11:21:44.174Z,101775.34
2023-02-07T11:24:21.138Z,101765.66
2023-02-07T11:27:05.592Z,101775.69
2023-02-07T11:29:44.090Z,101772.91
2023-02-07T11:32:15.013Z,101774.03
2023-02-07T11:34:45.853Z,101769.56
2023-02-07T11:37:33.030Z,101762.06
2023-02-07T11:40:19.936Z,101759.75
2023-02-07T11:43:09.824Z,101769.41
2023-02-07T11:45:41.708Z,101772.81
2023-02-07T11:48:18.525Z,101769.84
2023-02-07T11:50:52.538Z,101759.19
2023-02-07T11:53:24.517Z,101765.75
2023-02-07T11:55:54.541Z,101757.91
2023-02-07T11:58:32.394Z,101770.44
2023-02-07T12:01:02.258Z,101768.81
2023-02-07T12:03:33.512Z,101768.22
2023-02-07T12:06:05.496Z,101775.16
2023-02-07T12:08:35.238Z,101770.81
2023-02-07T12:11:12.682Z,101762.16
2023-02-07T12:13:46.420Z,101753.84
2023-02-07T12:16:36.669Z,101756.06
2023-02-07T12:19:12.884Z,101748.50
2023-02-07T12:22:01.606Z,101741.81
2023-02-07T12:24:36.200Z,101737.97
2023-02-07T12:27:13.745Z,101736.88
2023-02-07T12:30:09.384Z,101742.28
2023-02-07T12:32:50.433Z,101733.66
2023-02-07T12:35:41.096Z,101728.47
2023-02-07T12:38:27.952Z,101719.28
2023-02-07T12:40:54.663Z,101715.38
2023-02-07T12:43:25.686Z,101721.78
2023-02-07T12:46:14.333Z,101730.63
2023-02-07T12:49:02.719Z,101720.31
2023-02-07T12:51:46.458Z,101730.47
2023-02-07T12:54:16.930Z,101737.03
2023-02-07T12:57:08.812Z,101730.16
2023-02-07T13:00:04.892Z,101727.41
2023-02-07T13:02:50.457Z,101720.78
2023-02-07T13:05:48.627Z,101716.25
2023-02-07T13:08:37.156Z,101716.84
2023-02-07T13:11:03.677Z,101713.13
2023-02-07T13:13:42.317Z,101710.25
2023-02-07T13:16:20.274Z,101714.91
2023-02-07T13:19:00.412Z,101710.78
2023-02-07T13:21:39.038Z,101705.63
2023-02-07T13:24:07.814Z,101703.50
2023-02-07T13:26:36.832Z,101697.19
2023-02-07T13:29:11.920Z,101697.34
2023-02-07T13:31:46.915Z,101696.34
2023-02-07T13:34:24.590Z,101692.16
2023-02-07T13:36:52.611Z,101698.09
2023-02-07T13:39:30.105Z,101695.00
2023-02-07T13:42:28.962Z,101696.59
2023-02-07T13:45:11.772Z,101700.44
2023-02-07T13:47:53.789Z,101688.84
2023-02-07T13:50:23.625Z,101696.09
2023-02-07T13:52:58.843Z,101685.16
2023-02-07T13:55:31.264Z,101693.19
2023-02-07T13:58:16.733Z,101690.47
2023-02-07T14:00:58.350Z,101688.41
2023-02-07T14:03:31.251Z,101683.75
2023-02-07T14:06:12.882Z,101683.78
2023-02-07T14:08:39.808Z,101686.09
2023-02-07T14:11:32.965Z,101683.09
2023-02-07T14:14:11.581Z,101679.38
2023-02-07T14:16:44.245Z,101679.53
2023-02-07T14:19:13.141Z,101666.97
2023-02-07T14:21:41.927Z,101671.50
2023-02-07T14:24:14.371Z,101672.78
2023-02-07T14:26:43.804Z,101669.72
2023-02-07T14:29:27.418Z,101661.34
2023-02-07T14:32:12.649Z,101653.28
2023-02-07T14:34:58.721Z,101652.97
2023-02-07T14:37:51.561Z,101654.22
2023-02-07T14:40:24.745Z,101654.19
2023-02-07T14:43:17.851Z,101657.56
2023-02-07T14:45:50.375Z,101655.47
2023-02-07T14:48:47.776Z,101650.13
2023-02-07T14:51:29.682Z,101651.88
2023-02-07T14:54:15.063Z,101646.72
2023-02-07T14:57:02.137Z,101653.41
2023-02-07T14:59:33.178Z,101652.25
2023-02-07T15:02:38.480Z,101658.59
2023-02-07T15:05:59.373Z,101653.47
2023-02-07T15:08:34.856Z,101659.28
2023-02-07T15:11:12.765Z,101658.00
2023-02-07T15:13:43.066Z,101658.09
2023-02-07T15:16:14.657Z,101654.34
2023-02-07T15:18:54.836Z,101659.94
2023-02-07T15:21:42.053Z,101666.53
2023-02-07T15:24:17.670Z,101672.84
2023-02-07T15:26:49.768Z,101678.59
2023-02-07T15:29:25.554Z,101686.53
2023-02-07T15:31:53.906Z,101683.38
2023-02-07T15:34:24.786Z,101688.56
2023-02-07T15:36:52.918Z,101694.03
2023-02-07T15:39:25.535Z,101692.44
2023-02-07T15:41:55.475Z,101698.69
2023-02-07T15:44:34.292Z,101701.38
2023-02-07T15:47:06.986Z,101709.09
2023-02-07T15:49:40.702Z,101702.91
2023-02-07T15:52:25.350Z,101710.91
2023-02-07T15:54:54.301Z,101718.22
2023-02-07T15:57:25.972Z,101723.22
2023-02-07T15:59:55.492Z,101727.69
2023-02-07T16:02:27.983Z,101731.88
2023-02-07T16:04:54.575Z,101739.16
2023-02-07T16:07:22.304Z,101737.28
2023-02-07T16:09:49.177Z,101733.63
2023-02-07T16:12:44.592Z,101729.47
2023-02-07T16:15:33.390Z,101735.69
2023-02-07T16:18:01.507Z,101742.84
2023-02-07T16:23:01.800Z,101750.94
2023-02-07T16:25:33.371Z,101752.69
2023-02-07T16:28:01.235Z,101760.78
2023-02-07T16:30:32.996Z,101758.88
2023-02-07T16:33:04.744Z,101757.00
2023-02-07T16:35:31.515Z,101762.78
2023-02-07T16:37:58.184Z,101765.06
2023-02-07T16:40:26.663Z,101755.50
2023-02-07T16:42:55.470Z,101764.38
2023-02-07T16:45:25.955Z,101761.97
2023-02-07T16:47:52.473Z,101766.00
2023-02-07T16:50:25.660Z,101769.50
2023-02-07T16:52:56.815Z,101774.63
2023-02-07T16:55:26.455Z,101771.09
2023-02-07T16:57:55.402Z,101768.66
2023-02-07T17:00:28.589Z,101776.94
2023-02-07T17:02:58.771Z,101769.78
2023-02-07T17:05:25.790Z,101764.25
2023-02-07T17:07:52.366Z,101768.81
2023-02-07T17:10:30.006Z,101771.25
2023-02-07T17:12:56.942Z,101773.13
2023-02-07T17:15:24.101Z,101773.13
2023-02-07T17:17:52.988Z,101771.09
2023-02-07T17:20:30.951Z,101773.63
2023-02-07T17:22:57.568Z,101771.63
2023-02-07T17:25:27.628Z,101766.56
2023-02-07T17:27:54.444Z,101767.78
2023-02-07T17:30:23.868Z,101768.56
2023-02-07T17:32:50.552Z,101764.22
2023-02-07T17:35:17.744Z,101767.97
2023-02-07T17:37:44.452Z,101774.28
2023-02-07T17:40:22.978Z,101779.91
2023-02-07T17:42:50.269Z,101774.13
2023-02-07T17:45:17.264Z,101774.66
2023-02-07T17:47:43.933Z,101785.59
2023-02-07T17:50:17.944Z,101784.78
2023-02-07T17:52:44.843Z,101783.28
2023-02-07T17:55:11.439Z,101783.91
2023-02-07T17:57:38.304Z,101795.47
2023-02-07T18:00:05.626Z,101795.84
2023-02-07T18:02:39.212Z,101798.09
2023-02-07T18:05:06.261Z,101797.66
2023-02-07T18:07:32.884Z,101796.66
2023-02-07T18:09:59.447Z,101800.03
2023-02-07T18:12:26.059Z,101794.38
2023-02-07T18:14:53.204Z,101795.75
2023-02-07T18:17:20.621Z,101799.09
2023-02-07T18:19:47.262Z,101804.22
2023-02-07T18:22:13.825Z,101792.50
2023-02-07T18:24:40.436Z,101797.41
2023-02-07T18:27:07.111Z,101805.47
2023-02-07T18:29:33.748Z,101809.69
2023-02-07T18:32:00.386Z,101810.16
2023-02-07T18:34:27.026Z,101818.19
2023-02-07T18:36:53.695Z,101821.13
2023-02-07T18:39:20.279Z,101822.97
2023-02-07T18:41:46.916Z,101831.56
2023-02-07T18:44:13.954Z,101821.59
2023-02-07T18:46:40.580Z,101824.41
2023-02-07T18:49:07.230Z,101826.50
2023-02-07T18:51:34.090Z,101819.06
2023-02-07T18:54:00.728Z,101810.97
2023-02-07T18:56:27.707Z,101810.97
2023-02-07T18:58:56.717Z,101811.22
2023-02-07T19:01:25.750Z,101816.69
2023-02-07T19:03:58.290Z,101814.25
2023-02-07T19:06:27.873Z,101811.00
2023-02-07T19:08:55.404Z,101813.06
2023-02-07T19:11:22.487Z,101809.72
2023-02-07T19:13:49.320Z,101808.69
2023-02-07T19:16:19.093Z,101804.88
2023-02-07T19:18:46.898Z,101802.78
2023-02-07T19:21:21.683Z,101802.56
2023-02-07T19:23:48.533Z,101797.31
2023-02-07T19:26:15.170Z,101798.28
2023-02-07T19:28:42.194Z,101797.03
2023-02-07T19:31:13.454Z,101800.50
2023-02-07T19:33:40.951Z,101802.13
2023-02-07T19:36:10.056Z,101804.44
2023-02-07T19:38:36.919Z,101792.72
2023-02-07T19:41:04.412Z,101794.59
2023-02-07T19:43:31.465Z,101784.13
2023-02-07T19:45:58.130Z,101789.59
2023-02-07T19:48:24.795Z,101790.19
2023-02-07T19:50:58.908Z,101791.47
2023-02-07T19:53:27.541Z,101780.94
2023-02-07T19:55:56.939Z,101787.75
2023-02-07T19:58:23.509Z,101791.47
2023-02-07T20:00:50.077Z,101787.63
2023-02-07T20:03:16.691Z,101785.88
2023-02-07T20:05:45.212Z,101793.22
2023-02-07T20:08:12.719Z,101790.31
2023-02-07T20:10:47.343Z,101789.63
2023-02-07T20:13:15.244Z,101792.66
2023-02-07T20:15:45.716Z,101793.88
2023-02-07T20:18:13.045Z,101788.31
2023-02-07T20:20:41.980Z,101788.91
2023-02-07T20:23:09.527Z,101793.31
2023-02-07T20:25:40.111Z,101790.75
2023-02-07T20:28:07.890Z,101783.09
2023-02-07T20:30:35.925Z,101782.19
2023-02-07T20:33:02.611Z,101784.28
2023-02-07T20:35:29.170Z,101784.16
2023-02-07T20:37:55.846Z,101777.88
2023-02-07T20:40:22.424Z,101779.84
2023-02-07T20:42:49.122Z,101780.09
2023-02-07T20:45:15.697Z,101776.72
2023-02-07T20:47:42.392Z,101771.16
2023-02-07T20:50:09.616Z,101772.31
2023-02-07T20:52:37.543Z,101774.53
2023-02-07T20:55:05.740Z,101775.91
2023-02-07T20:57:32.552Z,101787.25
2023-02-07T20:59:59.180Z,101788.88
2023-02-07T21:02:25.853Z,101784.47
2023-02-07T21:04:52.599Z,101784.72
2023-02-07T21:07:19.198Z,101785.84
2023-02-07T21:09:46.199Z,101773.22
2023-02-07T21:12:13.192Z,101788.41
2023-02-07T21:14:40.370Z,101783.19
2023-02-07T21:17:07.539Z,101789.00
2023-02-07T21:19:35.711Z,101786.56
2023-02-07T21:22:02.367Z,101783.31
2023-02-07T21:24:29.019Z,101787.00
2023-02-07T21:26:57.069Z,101786.44
2023-02-07T21:29:24.830Z,101780.88
2023-02-07T21:31:51.700Z,101775.53
2023-02-07T21:34:21.241Z,101786.09
2023-02-07T21:36:49.334Z,101783.78
2023-02-07T21:39:16.465Z,101783.19
2023-02-07T21:41:45.009Z,101780.97
2023-02-07T21:44:13.804Z,101792.91
2023-02-07T21:46:42.308Z,101792.63
2023-02-07T21:49:14.660Z,101795.28
2023-02-07T21:51:43.059Z,101795.03
2023-02-07T21:54:09.940Z,101791.16
2023-02-07T21:56:39.682Z,101796.16
2023-02-07T21:59:10.344Z,101803.28
2023-02-07T22:01:37.186Z,101799.69
2023-02-07T22:04:05.864Z,101799.72
2023-02-07T22:06:33.206Z,101808.28
2023-02-07T22:09:01.411Z,101796.25
2023-02-07T22:11:31.488Z,101801.34
2023-02-07T22:13:58.240Z,101805.03
2023-02-07T22:16:26.533Z,101807.00
2023-02-07T22:18:54.006Z,101812.41
2023-02-07T22:21:23.340Z,101807.22
2023-02-07T22:23:50.802Z,101804.88
2023-02-07T22:26:20.277Z,101799.78
2023-02-07T22:28:48.260Z,101807.66
2023-02-07T22:31:35.169Z,101804.72
2023-02-07T22:34:05.375Z,101802.06
2023-02-07T22:36:33.922Z,101797.63
2023-02-07T22:39:01.924Z,101796.31
2023-02-07T22:41:29.777Z,101786.34
2023-02-07T22:43:56.594Z,101773.41
2023-02-07T22:46:24.695Z,101780.72
2023-02-07T22:48:52.249Z,101783.28
2023-02-07T22:51:24.485Z,101783.16
2023-02-07T22:53:59.326Z,101782.34
2023-02-07T22:56:27.254Z,101788.81
2023-02-07T22:58:54.778Z,101786.97
2023-02-07T23:01:27.386Z,101787.50
2023-02-07T23:03:54.947Z,101785.50
2023-02-07T23:06:22.348Z,101787.94
2023-02-07T23:08:49.675Z,101786.50
2023-02-07T23:11:19.177Z,101797.94
2023-02-07T23:13:45.831Z,101797.66
2023-02-07T23:16:14.869Z,101796.75
2023-02-07T23:18:42.980Z,101796.38
2023-02-07T23:21:12.047Z,101796.97
2023-02-07T23:23:39.317Z,101799.81
2023-02-07T23:26:11.914Z,101805.97
2023-02-07T23:28:38.941Z,101803.72
2023-02-07T23:31:07.019Z,101796.91
2023-02-07T23:33:34.384Z,101803.03
2023-02-07T23:36:01.425Z,101810.75
2023-02-07T23:38:28.034Z,101805.78
2023-02-07T23:40:54.903Z,101804.03
2023-02-07T23:43:21.476Z,101806.38
2023-02-07T23:45:48.128Z,101806.06
2023-02-07T23:48:14.729Z,101806.88
2023-02-07T23:50:41.521Z,101801.06
2023-02-07T23:53:08.386Z,101808.09
2023-02-07T23:55:35.283Z,101802.31
2023-02-07T23:58:01.840Z,101810.88
